Time;durP1;ratioP1;P1;durP2;ratioP2;P2;SDS_P1;SDS_P2;PMS_P1;PMS_P2;Temp;Humidity;BMP_temperature;BMP_pressure;BME280_temperature;BME280_humidity;BME280_pressure;Samples;Min_cycle;Max_cycle;Signal;HPM_P1;HPM_P2
2023/08/03 00:02:01;;;;;;;4.32;1.00;;;;;;;17.42;100.00;98469.72;5125189;28;20026;-75
2023/08/03 00:04:31;;;;;;;3.28;0.88;;;;;;;17.39;100.00;98477.94;5124669;28;20111;-74
2023/08/03 00:07:01;;;;;;;11.15;0.90;;;;;;;17.29;100.00;98463.94;5124872;28;20026;-75
2023/08/03 00:09:32;;;;;;;6.00;0.70;;;;;;;17.26;100.00;98480.06;5123351;28;20500;-75
2023/08/03 00:12:03;;;;;;;5.70;0.70;;;;;;;17.25;100.00;98473.13;5126018;28;20544;-75
2023/08/03 00:14:33;;;;;;;7.05;0.70;;;;;;;17.21;100.00;98471.75;5125675;28;20031;-75
2023/08/03 00:17:04;;;;;;;3.38;0.70;;;;;;;17.21;100.00;98467.31;5124749;28;20484;-75
2023/08/03 00:19:34;;;;;;;3.50;1.33;;;;;;;17.07;100.00;98467.81;5126116;28;20222;-76
2023/08/03 00:22:05;;;;;;;5.22;1.05;;;;;;;17.08;100.00;98458.91;5126245;28;20058;-74
2023/08/03 00:24:35;;;;;;;4.93;0.90;;;;;;;17.10;100.00;98464.03;5125507;28;20023;-74
2023/08/03 00:27:06;;;;;;;5.97;0.80;;;;;;;17.03;100.00;98462.97;5123063;28;20034;-74
2023/08/03 00:29:36;;;;;;;4.95;1.05;;;;;;;17.00;100.00;98465.88;5111819;28;20084;-76
2023/08/03 00:32:07;;;;;;;5.55;0.80;;;;;;;16.97;100.00;98466.19;5122256;28;20032;-75
2023/08/03 00:34:37;;;;;;;4.05;0.70;;;;;;;16.90;100.00;98462.44;5119831;28;20395;-75
2023/08/03 00:37:10;;;;;;;6.10;0.70;;;;;;;16.88;100.00;98461.75;5123560;28;20031;-75
2023/08/03 00:39:40;;;;;;;4.70;0.88;;;;;;;16.87;100.00;98460.94;5126999;28;20306;-75
2023/08/03 00:42:11;;;;;;;4.97;0.85;;;;;;;16.84;100.00;98463.03;5103939;28;21872;-74
2023/08/03 00:44:41;;;;;;;4.28;0.70;;;;;;;16.82;100.00;98471.09;5127072;28;20085;-74
2023/08/03 00:47:12;;;;;;;9.70;0.80;;;;;;;16.77;100.00;98457.50;5122761;28;20133;-74
2023/08/03 00:49:42;;;;;;;2.22;0.60;;;;;;;16.85;100.00;98457.63;5131101;28;20023;-75
2023/08/03 00:52:12;;;;;;;3.03;0.75;;;;;;;16.67;100.00;98455.88;5102646;28;20230;-75
2023/08/03 00:54:43;;;;;;;2.92;0.90;;;;;;;16.74;100.00;98459.59;5130148;28;20023;-75
2023/08/03 00:57:13;;;;;;;4.70;0.73;;;;;;;16.76;100.00;98448.91;5108512;28;20115;-74
2023/08/03 00:59:44;;;;;;;6.07;0.90;;;;;;;16.67;100.00;98450.59;5142300;28;20027;-74
2023/08/03 01:02:14;;;;;;;4.05;0.70;;;;;;;16.70;100.00;98444.22;5122185;28;20120;-75
2023/08/03 01:04:44;;;;;;;3.92;0.52;;;;;;;16.59;100.00;98450.47;5134644;28;20400;-74
2023/08/03 01:07:15;;;;;;;5.22;0.70;;;;;;;16.60;100.00;98448.69;5142041;28;20026;-74
2023/08/03 01:09:45;;;;;;;2.58;0.80;;;;;;;16.57;100.00;98447.16;5130419;28;20196;-74
2023/08/03 01:12:16;;;;;;;4.80;1.13;;;;;;;16.52;100.00;98446.75;5111833;28;20400;-74
2023/08/03 01:14:46;;;;;;;3.88;0.75;;;;;;;16.44;100.00;98451.94;5148787;28;20055;-75
2023/08/03 01:17:17;;;;;;;6.20;0.70;;;;;;;16.34;100.00;98437.91;5136626;28;20088;-74
2023/08/03 01:19:47;;;;;;;4.15;0.90;;;;;;;16.42;100.00;98440.66;5145175;23;20126;-71
2023/08/03 01:22:18;;;;;;;3.70;0.77;;;;;;;16.35;100.00;98438.78;5121992;28;20027;-72
2023/08/03 01:24:49;;;;;;;7.10;0.77;;;;;;;16.30;100.00;98441.78;5129202;28;20076;-70
2023/08/03 01:27:19;;;;;;;7.03;0.70;;;;;;;16.28;100.00;98438.47;5127538;28;20018;-71
2023/08/03 01:29:49;;;;;;;4.07;0.95;;;;;;;16.25;100.00;98440.56;5129266;28;20477;-70
2023/08/03 01:32:20;;;;;;;2.08;0.75;;;;;;;16.33;100.00;98428.31;5104549;28;20031;-69
2023/08/03 01:34:50;;;;;;;14.70;1.00;;;;;;;16.31;100.00;98432.91;5103468;28;20043;-70
2023/08/03 01:37:20;;;;;;;2.50;0.60;;;;;;;16.31;100.00;98434.72;5108753;28;20420;-71
2023/08/03 01:39:50;;;;;;;6.63;1.10;;;;;;;16.37;100.00;98436.81;5107068;28;20041;-70
2023/08/03 01:42:21;;;;;;;6.45;0.95;;;;;;;16.36;100.00;98441.25;5105322;28;20170;-70
2023/08/03 01:44:51;;;;;;;6.40;0.70;;;;;;;16.39;100.00;98433.06;5109396;28;20113;-70
2023/08/03 01:47:21;;;;;;;10.57;1.30;;;;;;;16.39;100.00;98429.59;5103573;28;20075;-70
2023/08/03 01:49:52;;;;;;;5.70;1.00;;;;;;;16.46;100.00;98426.25;5122565;28;20431;-70
2023/08/03 01:52:22;;;;;;;5.90;0.90;;;;;;;16.62;100.00;98425.63;5101092;28;20032;-71
2023/08/03 01:54:52;;;;;;;7.07;1.17;;;;;;;16.66;100.00;98427.00;5103365;28;20107;-70
2023/08/03 01:57:22;;;;;;;3.70;0.90;;;;;;;16.69;100.00;98422.28;5106099;28;20447;-70
2023/08/03 01:59:53;;;;;;;4.03;0.90;;;;;;;16.67;100.00;98418.09;5107615;28;20995;-71
2023/08/03 02:02:23;;;;;;;6.80;1.17;;;;;;;16.73;100.00;98422.81;5101944;28;20736;-70
2023/08/03 02:04:53;;;;;;;6.82;1.02;;;;;;;16.74;100.00;98420.03;5106307;28;20299;-69
2023/08/03 02:07:44;;;;;;;6.75;1.02;;;;;;;16.79;100.00;98404.59;5102050;28;20044;-70
2023/08/03 02:10:15;;;;;;;7.45;1.02;;;;;;;16.78;100.00;98406.41;5108917;28;20051;-70
2023/08/03 02:12:45;;;;;;;3.72;0.70;;;;;;;16.98;100.00;98399.22;5107851;28;20050;-70
2023/08/03 02:15:16;;;;;;;11.30;1.13;;;;;;;16.89;100.00;98413.28;5103980;28;20044;-70
2023/08/03 02:17:46;;;;;;;6.13;1.10;;;;;;;16.94;100.00;98403.16;5104889;28;20440;-70
2023/08/03 02:20:16;;;;;;;10.35;1.75;;;;;;;16.95;100.00;98403.00;5107421;28;20075;-71
2023/08/03 02:22:48;;;;;;;9.23;1.08;;;;;;;16.99;100.00;98395.63;5117192;28;20362;-70
2023/08/03 02:25:23;;;;;;;9.68;1.08;;;;;;;17.13;100.00;98398.56;5106660;28;20032;-71
2023/08/03 02:27:53;;;;;;;6.28;0.98;;;;;;;17.10;100.00;98400.66;5106991;28;20485;-71
2023/08/03 02:30:23;;;;;;;3.85;0.90;;;;;;;17.14;100.00;98405.50;5107362;28;20040;-71
2023/08/03 02:32:54;;;;;;;5.00;0.95;;;;;;;17.10;100.00;98409.44;5103616;28;20603;-70
2023/08/03 02:35:24;;;;;;;3.93;1.07;;;;;;;17.23;100.00;98407.28;5119163;28;20026;-71
2023/08/03 02:37:54;;;;;;;6.13;1.25;;;;;;;17.17;100.00;98401.75;5103838;28;20279;-71
2023/08/03 02:40:25;;;;;;;3.78;0.82;;;;;;;17.21;100.00;98393.41;5107035;28;20474;-71
2023/08/03 02:42:55;;;;;;;5.40;0.95;;;;;;;17.20;100.00;98378.53;5101621;28;20654;-70
2023/08/03 02:45:25;;;;;;;6.60;1.50;;;;;;;17.21;100.00;98382.84;5102584;28;20036;-70
2023/08/03 02:47:56;;;;;;;5.57;1.02;;;;;;;17.19;100.00;98384.81;5101696;28;20511;-71
2023/08/03 02:50:26;;;;;;;4.18;0.98;;;;;;;17.27;100.00;98384.03;5107126;28;20038;-70
2023/08/03 02:52:56;;;;;;;11.18;1.00;;;;;;;17.30;100.00;98381.13;5102298;28;20416;-70
2023/08/03 02:55:26;;;;;;;6.22;1.23;;;;;;;17.31;100.00;98366.94;5103854;28;20050;-70
2023/08/03 02:57:57;;;;;;;4.57;0.93;;;;;;;17.34;100.00;98371.94;5107156;29;20331;-71
2023/08/03 03:00:27;;;;;;;8.27;1.35;;;;;;;17.32;100.00;98366.75;5105788;28;20054;-72
2023/08/03 03:02:57;;;;;;;5.90;1.27;;;;;;;17.41;100.00;98367.69;5099981;28;20469;-70
2023/08/03 03:05:28;;;;;;;4.28;0.82;;;;;;;17.37;100.00;98387.47;5104605;28;20035;-71
2023/08/03 03:07:58;;;;;;;8.15;0.80;;;;;;;17.41;100.00;98381.75;5100404;29;20077;-70
2023/08/03 03:10:28;;;;;;;3.92;0.75;;;;;;;17.44;100.00;98377.97;5107209;28;20119;-71
2023/08/03 03:12:58;;;;;;;4.68;1.00;;;;;;;17.48;100.00;98363.50;5100650;28;20085;-70
2023/08/03 03:15:29;;;;;;;5.13;0.75;;;;;;;17.48;100.00;98371.41;5102888;28;20034;-71
2023/08/03 03:17:59;;;;;;;4.35;0.65;;;;;;;17.53;100.00;98366.50;5101167;28;20027;-71
2023/08/03 03:20:29;;;;;;;4.60;0.80;;;;;;;17.47;100.00;98369.75;5102514;28;20028;-71
2023/08/03 03:23:00;;;;;;;3.38;1.23;;;;;;;17.47;100.00;98377.69;5108833;28;20122;-71
2023/08/03 03:25:30;;;;;;;3.33;0.73;;;;;;;17.37;100.00;98372.47;5107576;28;20034;-71
2023/08/03 03:28:04;;;;;;;4.20;0.75;;;;;;;17.33;100.00;98359.69;5101149;28;20031;-71
2023/08/03 03:30:34;;;;;;;4.13;0.70;;;;;;;17.34;100.00;98356.09;5105245;28;20082;-70
2023/08/03 03:33:04;;;;;;;7.82;0.95;;;;;;;17.33;100.00;98359.69;5106224;28;20023;-70
2023/08/03 03:35:35;;;;;;;2.42;0.55;;;;;;;17.35;100.00;98347.19;5104767;28;20062;-71
2023/08/03 03:38:05;;;;;;;3.35;0.82;;;;;;;17.34;100.00;98342.91;5102400;28;20623;-72
2023/08/03 03:40:36;;;;;;;3.50;0.70;;;;;;;17.36;100.00;98357.63;5099491;28;20031;-71
2023/08/03 03:43:06;;;;;;;3.80;0.80;;;;;;;17.35;100.00;98355.13;5102398;28;20031;-71
2023/08/03 03:45:36;;;;;;;2.65;0.65;;;;;;;17.30;100.00;98360.00;5103812;29;20044;-72
2023/08/03 03:48:07;;;;;;;3.75;0.50;;;;;;;17.33;100.00;98355.22;5101924;28;20441;-72
2023/08/03 03:50:37;;;;;;;4.05;0.63;;;;;;;17.38;100.00;98347.72;5108237;28;20040;-72
2023/08/03 03:53:07;;;;;;;3.17;0.75;;;;;;;17.41;100.00;98357.13;5098422;28;20035;-71
2023/08/03 03:55:37;;;;;;;3.17;0.70;;;;;;;17.35;100.00;98363.84;5104357;28;20020;-72
2023/08/03 03:58:08;;;;;;;5.72;0.52;;;;;;;17.43;100.00;98355.19;5100700;28;20055;-71
2023/08/03 04:00:41;;;;;;;2.97;0.57;;;;;;;17.46;100.00;98350.44;5102739;28;20031;-72
2023/08/03 04:03:11;;;;;;;5.72;1.27;;;;;;;17.47;100.00;98359.19;5111347;28;20062;-70
2023/08/03 04:05:42;;;;;;;3.30;0.60;;;;;;;17.49;100.00;98362.50;5108229;28;20024;-71
2023/08/03 04:08:12;;;;;;;3.35;0.70;;;;;;;17.53;100.00;98362.06;5121877;28;20102;-70
2023/08/03 04:10:42;;;;;;;4.13;0.63;;;;;;;17.56;100.00;98366.19;5108895;28;20545;-72
2023/08/03 04:13:12;;;;;;;7.95;0.90;;;;;;;17.50;100.00;98374.75;5121720;28;20275;-71
2023/08/03 04:15:43;;;;;;;10.38;1.15;;;;;;;17.55;100.00;98369.81;5110404;28;20023;-72
2023/08/03 04:18:14;;;;;;;2.15;0.50;;;;;;;17.59;100.00;98379.09;5107811;28;20070;-70
2023/08/03 04:20:45;;;;;;;3.25;0.60;;;;;;;17.51;100.00;98374.56;5103850;28;20027;-72
2023/08/03 04:23:15;;;;;;;3.80;0.40;;;;;;;17.64;100.00;98374.22;5104795;28;20061;-71
2023/08/03 04:25:45;;;;;;;3.00;0.60;;;;;;;17.64;100.00;98368.94;5107179;28;20034;-72
2023/08/03 04:28:15;;;;;;;2.75;0.50;;;;;;;17.69;100.00;98361.38;5107903;28;20031;-72
2023/08/03 04:30:46;;;;;;;4.78;0.70;;;;;;;17.83;100.00;98387.25;5111930;28;20197;-72
2023/08/03 04:33:16;;;;;;;2.20;0.50;;;;;;;17.79;100.00;98385.91;5118250;28;20023;-71
2023/08/03 04:35:46;;;;;;;3.17;0.40;;;;;;;17.77;100.00;98391.31;5106760;28;20457;-71
2023/08/03 04:38:17;;;;;;;2.28;0.40;;;;;;;17.78;100.00;98392.97;5102782;28;20055;-71
2023/08/03 04:40:47;;;;;;;4.70;0.50;;;;;;;17.66;100.00;98398.66;5108560;28;20027;-72
2023/08/03 04:43:17;;;;;;;3.00;0.88;;;;;;;17.70;100.00;98394.72;5100750;28;20035;-71
2023/08/03 04:45:47;;;;;;;4.80;0.63;;;;;;;17.77;100.00;98406.34;5098352;28;20032;-69
2023/08/03 04:48:18;;;;;;;3.60;0.30;;;;;;;17.71;100.00;98406.94;5112717;28;20555;-71
2023/08/03 04:50:48;;;;;;;1.92;0.80;;;;;;;17.82;100.00;98412.00;5113788;28;20122;-70
2023/08/03 04:53:18;;;;;;;3.65;0.60;;;;;;;17.77;100.00;98417.75;5124537;28;20031;-71
2023/08/03 04:55:49;;;;;;;2.60;0.40;;;;;;;17.78;100.00;98416.75;5103280;28;20027;-71
2023/08/03 04:58:19;;;;;;;1.65;0.30;;;;;;;17.83;100.00;98421.59;5121857;28;20078;-71
2023/08/03 05:00:49;;;;;;;2.30;0.50;;;;;;;17.74;100.00;98425.13;5108378;28;20085;-72
2023/08/03 05:03:20;;;;;;;4.47;0.40;;;;;;;17.79;100.00;98425.53;5112126;28;20027;-71
2023/08/03 05:05:50;;;;;;;2.30;0.60;;;;;;;17.88;100.00;98427.25;5106105;28;20031;-70
2023/08/03 05:08:22;;;;;;;4.38;0.50;;;;;;;18.05;100.00;98421.13;5125588;28;20485;-72
2023/08/03 05:10:53;;;;;;;2.45;0.60;;;;;;;18.29;100.00;98421.31;5130352;28;20027;-72
2023/08/03 05:13:23;;;;;;;3.60;0.60;;;;;;;18.24;100.00;98421.78;5110740;28;20097;-72
2023/08/03 05:15:53;;;;;;;4.43;0.47;;;;;;;18.18;100.00;98418.91;5131746;28;20084;-73
2023/08/03 05:18:24;;;;;;;2.20;0.50;;;;;;;17.98;100.00;98425.38;5130862;28;20487;-71
2023/08/03 05:20:54;;;;;;;0.93;0.40;;;;;;;18.01;100.00;98425.06;5107543;28;20059;-72
2023/08/03 05:23:24;;;;;;;1.92;0.60;;;;;;;18.05;100.00;98426.41;5121692;28;20408;-72
2023/08/03 05:25:56;;;;;;;3.30;0.77;;;;;;;18.07;100.00;98425.28;5109717;28;20078;-72
2023/08/03 05:28:26;;;;;;;4.15;0.50;;;;;;;18.21;100.00;98429.19;5112490;28;20023;-72
2023/08/03 05:30:56;;;;;;;2.47;0.43;;;;;;;18.39;100.00;98419.41;5115722;28;20052;-70
2023/08/03 05:33:27;;;;;;;2.63;0.55;;;;;;;18.41;100.00;98428.03;5107464;28;20031;-73
2023/08/03 05:35:57;;;;;;;3.33;0.82;;;;;;;18.42;100.00;98440.25;5118142;28;20017;-72
2023/08/03 05:38:28;;;;;;;2.58;0.30;;;;;;;18.38;100.00;98449.50;5113791;28;20035;-72
2023/08/03 05:40:58;;;;;;;3.67;0.50;;;;;;;18.35;100.00;98450.63;5113925;28;20402;-72
2023/08/03 05:43:28;;;;;;;3.20;0.30;;;;;;;18.42;100.00;98450.84;5122513;28;20058;-72
2023/08/03 05:46:01;;;;;;;1.27;0.40;;;;;;;18.41;100.00;98463.25;5109237;28;20032;-72
2023/08/03 05:48:31;;;;;;;2.00;0.40;;;;;;;18.23;100.00;98464.22;5113197;28;20666;-71
2023/08/03 05:51:01;;;;;;;2.08;0.30;;;;;;;18.13;100.00;98461.66;5113504;28;20054;-71
2023/08/03 05:53:32;;;;;;;2.78;0.50;;;;;;;18.25;100.00;98464.91;5112121;28;20024;-72
2023/08/03 05:56:08;;;;;;;3.35;0.60;;;;;;;18.27;100.00;98477.03;5109738;28;20485;-72
2023/08/03 05:58:39;;;;;;;2.25;0.73;;;;;;;18.35;100.00;98468.31;5112952;28;20110;-72
2023/08/03 06:01:11;;;;;;;3.50;0.68;;;;;;;18.23;100.00;98482.72;5111480;28;20540;-70
2023/08/03 06:03:46;;;;;;;3.78;0.38;;;;;;;18.19;100.00;98486.66;5121754;28;20030;-72
2023/08/03 06:06:20;;;;;;;2.58;0.50;;;;;;;18.32;100.00;98487.16;5109695;28;20175;-72
2023/08/03 06:08:52;;;;;;;3.33;0.40;;;;;;;18.28;100.00;98496.34;5118671;28;20133;-72
2023/08/03 06:11:23;;;;;;;1.10;0.40;;;;;;;18.13;100.00;98489.91;5106938;28;20048;-72
2023/08/03 06:13:55;;;;;;;1.38;0.45;;;;;;;18.27;100.00;98484.09;5103620;28;20500;-70
2023/08/03 06:16:25;;;;;;;6.38;0.50;;;;;;;18.29;100.00;98495.38;5115341;28;20094;-71
2023/08/03 06:18:59;;;;;;;1.73;0.45;;;;;;;18.36;100.00;98491.16;5110174;28;20531;-72
2023/08/03 06:21:29;;;;;;;2.88;0.50;;;;;;;18.53;100.00;98501.69;5113509;28;20031;-72
2023/08/03 06:23:59;;;;;;;2.78;0.40;;;;;;;18.73;100.00;98497.88;5113308;28;20400;-72
2023/08/03 06:26:32;;;;;;;2.25;0.40;;;;;;;18.94;100.00;98496.47;5109866;28;20031;-72
2023/08/03 06:29:05;;;;;;;2.60;0.30;;;;;;;19.51;100.00;98495.78;5104326;28;20020;-72
2023/08/03 06:31:40;;;;;;;4.95;0.65;;;;;;;20.16;100.00;98496.78;5109320;28;20042;-71
2023/08/03 06:34:14;;;;;;;3.35;0.35;;;;;;;20.68;100.00;98497.09;5108947;28;20035;-71
2023/08/03 06:36:44;;;;;;;0.77;0.30;;;;;;;20.74;99.75;98498.25;5121113;28;20518;-72
2023/08/03 06:39:15;;;;;;;2.20;0.57;;;;;;;20.46;100.00;98499.59;5109541;28;20027;-72
2023/08/03 06:41:45;;;;;;;3.00;0.50;;;;;;;20.90;96.80;98488.44;5114099;28;20034;-72
2023/08/03 06:44:17;;;;;;;1.80;0.40;;;;;;;20.97;94.10;98488.59;5126851;28;20046;-72
2023/08/03 06:46:51;;;;;;;2.40;0.30;;;;;;;22.25;93.20;98493.28;5110155;28;20042;-72
2023/08/03 06:49:22;;;;;;;1.50;0.40;;;;;;;22.82;87.16;98490.78;5108748;28;20222;-72
2023/08/03 06:51:53;;;;;;;0.77;0.30;;;;;;;22.45;86.48;98505.13;5115219;28;20031;-73
2023/08/03 06:54:23;;;;;;;1.90;0.40;;;;;;;22.24;88.64;98511.06;5110461;28;20035;-71
2023/08/03 06:56:53;;;;;;;1.38;0.47;;;;;;;21.42;91.29;98515.34;5125106;28;20027;-73
2023/08/03 06:59:24;;;;;;;1.83;0.40;;;;;;;20.88;92.95;98517.00;5114938;28;20441;-72
2023/08/03 07:01:54;;;;;;;1.00;0.40;;;;;;;20.76;95.73;98520.13;5120689;28;20020;-72
2023/08/03 07:04:24;;;;;;;1.67;0.30;;;;;;;21.40;93.79;98528.78;5114002;28;20402;-72
2023/08/03 07:06:55;;;;;;;2.03;0.30;;;;;;;21.11;92.81;98522.44;5108830;28;20023;-72
2023/08/03 07:09:25;;;;;;;2.15;0.60;;;;;;;20.70;93.93;98520.81;5113527;28;20727;-72
2023/08/03 07:11:55;;;;;;;1.67;0.40;;;;;;;20.52;95.74;98527.28;5109351;28;20031;-72
2023/08/03 07:14:26;;;;;;;0.80;0.38;;;;;;;20.34;97.35;98537.25;5125662;28;20493;-72
2023/08/03 07:16:56;;;;;;;0.60;0.25;;;;;;;19.99;99.11;98543.63;5122564;28;20030;-72
2023/08/03 07:19:26;;;;;;;2.28;0.20;;;;;;;19.91;99.54;98546.25;5109487;28;20080;-72
2023/08/03 07:21:56;;;;;;;0.38;0.20;;;;;;;19.95;98.17;98547.59;5141750;22;20043;-72
2023/08/03 07:24:28;;;;;;;0.75;0.20;;;;;;;19.95;97.96;98547.59;5104020;28;20509;-71
2023/08/03 07:27:00;;;;;;;1.05;0.20;;;;;;;20.04;99.74;98553.78;5103434;29;20538;-73
2023/08/03 07:29:32;;;;;;;1.92;0.45;;;;;;;19.88;99.78;98572.25;5101711;29;20385;-72
2023/08/03 07:32:03;;;;;;;1.45;0.25;;;;;;;20.15;99.15;98559.59;5114105;28;20039;-73
2023/08/03 07:34:34;;;;;;;1.95;0.32;;;;;;;20.33;97.33;98557.63;5119273;28;20557;-72
2023/08/03 07:37:04;;;;;;;2.40;0.20;;;;;;;20.13;98.20;98553.63;5117238;28;20038;-73
2023/08/03 07:39:35;;;;;;;2.00;0.30;;;;;;;20.01;99.11;98562.88;5110367;28;20073;-73
2023/08/03 07:42:06;;;;;;;1.35;0.30;;;;;;;20.05;99.50;98563.38;5119292;28;20492;-72
2023/08/03 07:44:36;;;;;;;1.00;0.30;;;;;;;20.21;97.37;98569.56;5107439;28;20658;-73
2023/08/03 07:47:06;;;;;;;2.07;0.43;;;;;;;20.10;99.20;98572.53;5109581;28;20113;-72
2023/08/03 07:49:37;;;;;;;2.60;0.40;;;;;;;20.18;100.00;98564.59;5106027;28;20279;-72
2023/08/03 07:52:07;;;;;;;0.57;0.20;;;;;;;20.08;99.38;98561.25;5110218;28;20039;-73
2023/08/03 07:54:38;;;;;;;0.40;0.20;;;;;;;20.28;98.91;98573.22;5106192;28;20074;-72
2023/08/03 07:57:11;;;;;;;0.45;0.30;;;;;;;20.68;96.90;98567.91;5107494;28;20058;-72
2023/08/03 07:59:42;;;;;;;5.80;0.30;;;;;;;20.91;96.72;98564.47;5106621;28;20042;-72
2023/08/03 08:02:12;;;;;;;0.40;0.20;;;;;;;21.70;94.61;98575.06;5123811;28;20118;-73
2023/08/03 08:04:43;;;;;;;3.63;0.20;;;;;;;22.62;89.83;98567.88;5112097;28;20555;-73
2023/08/03 08:07:13;;;;;;;0.65;0.13;;;;;;;22.09;88.23;98568.72;5110432;28;20283;-71
2023/08/03 08:09:43;;;;;;;1.23;0.20;;;;;;;22.23;90.04;98573.28;5111106;28;20284;-73
2023/08/03 08:12:15;;;;;;;2.22;0.22;;;;;;;22.03;88.62;98592.53;5108584;28;20752;-73
2023/08/03 08:14:46;;;;;;;1.38;0.20;;;;;;;22.25;88.42;98578.44;5109418;29;20382;-72
2023/08/03 08:17:16;;;;;;;0.80;0.38;;;;;;;21.97;89.28;98586.09;5109176;28;20031;-72
2023/08/03 08:19:47;;;;;;;0.73;0.20;;;;;;;22.26;90.14;98591.56;5108405;29;20042;-72
2023/08/03 08:22:17;;;;;;;0.87;0.27;;;;;;;21.56;92.89;98586.41;5124599;28;20286;-73
2023/08/03 08:24:47;;;;;;;0.57;0.10;;;;;;;21.32;92.11;98592.63;5125643;28;20768;-72
2023/08/03 08:27:17;;;;;;;0.28;0.10;;;;;;;21.20;92.79;98606.44;5126251;28;20419;-73
2023/08/03 08:29:48;;;;;;;0.47;0.10;;;;;;;20.90;92.76;98593.84;5126617;28;20087;-71
2023/08/03 08:32:18;;;;;;;2.05;0.32;;;;;;;20.64;93.83;98600.31;5126382;28;20042;-73
2023/08/03 08:34:48;;;;;;;0.57;0.20;;;;;;;20.65;95.46;98610.75;5121064;28;20065;-71
2023/08/03 08:37:19;;;;;;;0.10;0.10;;;;;;;20.76;98.27;98610.41;5125605;28;20286;-72
2023/08/03 08:39:49;;;;;;;1.73;0.20;;;;;;;20.72;96.29;98607.25;5127867;28;20031;-71
2023/08/03 08:42:19;;;;;;;0.73;0.20;;;;;;;20.67;96.11;98619.38;5128886;28;20284;-72
2023/08/03 08:44:51;;;;;;;0.68;0.20;;;;;;;21.05;95.25;98610.78;5124382;28;20372;-72
2023/08/03 08:47:21;;;;;;;0.60;0.20;;;;;;;21.21;92.07;98618.72;5127182;28;20120;-73
2023/08/03 08:49:51;;;;;;;1.67;0.20;;;;;;;21.44;92.12;98615.16;5127576;28;20019;-73
2023/08/03 08:52:25;;;;;;;0.73;0.10;;;;;;;21.74;92.84;98617.09;5128759;28;20039;-73
2023/08/03 08:55:15;;;;;;;0.63;0.20;;;;;;;21.82;92.80;98614.44;5127284;28;20671;-71
2023/08/03 08:57:46;;;;;;;0.20;0.10;;;;;;;22.00;91.87;98616.81;5125292;28;20127;-72
2023/08/03 09:00:17;;;;;;;1.10;0.25;;;;;;;22.01;91.98;98618.50;5124154;28;20037;-71
2023/08/03 09:02:47;;;;;;;0.10;0.10;;;;;;;24.39;85.35;98603.91;5124104;28;20042;-71
2023/08/03 09:05:23;;;;;;;1.75;0.22;;;;;;;23.52;85.82;98609.34;5124732;28;20072;-72
2023/08/03 09:08:04;;;;;;;3.00;0.15;;;;;;;23.10;85.71;98608.25;5124579;28;20039;-73
2023/08/03 09:10:54;;;;;;;0.75;0.35;;;;;;;22.78;87.04;98620.03;5124871;28;20023;-72
2023/08/03 09:13:26;;;;;;;1.45;0.30;;;;;;;22.35;88.61;98624.28;5114325;28;20499;-72
2023/08/03 09:15:57;;;;;;;1.10;0.50;;;;;;;21.80;89.61;98631.56;5123329;28;20035;-72
2023/08/03 09:18:30;;;;;;;3.03;0.30;;;;;;;21.98;90.95;98637.47;5124519;28;20072;-72
2023/08/03 09:21:11;;;;;;;1.10;0.30;;;;;;;21.65;90.17;98638.56;5125400;28;20023;-72
2023/08/03 09:23:42;;;;;;;1.27;0.20;;;;;;;21.71;90.25;98636.06;5127595;28;20523;-72
2023/08/03 09:26:12;;;;;;;0.70;0.38;;;;;;;21.72;89.55;98634.25;5126869;28;20027;-71
2023/08/03 09:28:43;;;;;;;1.02;0.30;;;;;;;21.49;89.16;98625.28;5127152;28;20066;-71
2023/08/03 09:31:21;;;;;;;3.15;0.30;;;;;;;21.57;89.17;98626.09;5129062;28;20073;-72
2023/08/03 09:33:59;;;;;;;0.57;0.20;;;;;;;21.47;88.02;98629.97;5126536;28;20043;-72
2023/08/03 09:36:29;;;;;;;0.93;0.25;;;;;;;21.22;90.79;98637.16;5129218;28;20103;-72
2023/08/03 09:39:20;;;;;;;0.65;0.30;;;;;;;21.15;92.58;98656.59;5133339;28;20046;-72
2023/08/03 09:41:51;;;;;;;1.05;0.40;;;;;;;20.86;95.69;98661.59;5129494;28;20441;-72
2023/08/03 09:44:22;;;;;;;0.10;0.10;;;;;;;20.54;97.72;98665.97;5128593;28;20119;-72
2023/08/03 09:46:53;;;;;;;0.95;0.30;;;;;;;20.56;99.74;98662.19;5122505;28;20043;-72
2023/08/03 09:49:25;;;;;;;3.65;0.80;;;;;;;20.11;100.00;98690.09;5130403;28;20035;-72
2023/08/03 09:51:59;;;;;;;1.30;0.70;;;;;;;20.02;100.00;98691.88;5125295;28;20031;-72
2023/08/03 09:54:52;;;;;;;4.65;1.52;;;;;;;20.02;100.00;98694.53;5127103;28;20034;-72
2023/08/03 09:57:24;;;;;;;10.23;1.58;;;;;;;19.93;100.00;98698.09;5126184;28;20053;-72
2023/08/03 10:00:03;;;;;;;5.03;1.85;;;;;;;19.91;100.00;98708.03;5125297;28;20035;-72
2023/08/03 10:02:48;;;;;;;1.55;0.90;;;;;;;19.92;100.00;98706.22;5136858;28;20023;-71
2023/08/03 10:05:20;;;;;;;0.85;0.40;;;;;;;19.97;100.00;98725.94;5126392;28;20038;-73
2023/08/03 10:08:19;;;;;;;2.75;0.68;;;;;;;20.13;100.00;98725.22;5129391;28;20152;-72
2023/08/03 10:10:56;;;;;;;4.43;0.50;;;;;;;20.10;98.50;98730.88;5127514;28;20139;-71
2023/08/03 10:13:28;;;;;;;6.43;2.08;;;;;;;20.27;99.33;98743.22;5129431;28;20332;-72
2023/08/03 10:16:01;;;;;;;1.40;0.50;;;;;;;20.02;100.00;98752.88;5123636;28;20085;-70
2023/08/03 10:18:35;;;;;;;4.18;0.50;;;;;;;19.78;100.00;98752.69;5129700;28;20073;-71
2023/08/03 10:21:06;;;;;;;2.67;0.60;;;;;;;19.44;100.00;98765.03;5127548;28;20162;-71
2023/08/03 10:23:40;;;;;;;4.07;0.75;;;;;;;19.47;100.00;98777.16;5127392;28;20065;-71
2023/08/03 10:26:21;;;;;;;2.53;0.90;;;;;;;19.24;100.00;98782.09;5131907;28;20045;-72
2023/08/03 10:28:51;;;;;;;0.95;0.60;;;;;;;19.07;100.00;98787.38;5126949;28;20373;-72
2023/08/03 10:31:22;;;;;;;1.53;0.40;;;;;;;18.90;100.00;98793.47;5111923;28;20050;-72
2023/08/03 10:33:52;;;;;;;1.65;0.68;;;;;;;18.91;100.00;98793.31;5120849;28;20287;-72
2023/08/03 10:36:33;;;;;;;1.85;0.60;;;;;;;18.94;100.00;98797.50;5126300;28;20039;-72
2023/08/03 10:39:11;;;;;;;1.67;0.60;;;;;;;18.96;100.00;98801.63;5116819;28;20584;-72
2023/08/03 10:41:44;;;;;;;2.65;0.68;;;;;;;18.91;100.00;98798.59;5130164;28;20100;-72
2023/08/03 10:44:15;;;;;;;1.38;0.60;;;;;;;18.82;100.00;98793.38;5129196;28;20249;-71
2023/08/03 10:46:49;;;;;;;2.53;0.83;;;;;;;18.74;100.00;98791.47;5122765;28;20040;-71
2023/08/03 10:49:19;;;;;;;3.08;0.85;;;;;;;19.12;100.00;98788.56;5125606;28;20034;-72
2023/08/03 10:51:55;;;;;;;3.03;0.73;;;;;;;19.20;100.00;98782.53;5123549;28;21279;-72
2023/08/03 10:54:29;;;;;;;;;;;;;;;19.12;100.00;98796.50;5114616;28;20486;-72
2023/08/03 10:57:14;;;;;;;2.25;0.30;;;;;;;19.41;100.00;98796.31;5123064;28;19941;-72
2023/08/03 10:59:49;;;;;;;1.38;0.30;;;;;;;19.50;100.00;98792.72;5123000;28;20500;-73
2023/08/03 11:02:22;;;;;;;;;;;;;;;19.00;100.00;98789.78;5128523;28;20507;-72
2023/08/03 11:04:53;;;;;;;0.15;0.10;;;;;;;19.18;100.00;98806.53;5123427;28;19925;-72
2023/08/03 11:07:23;;;;;;;0.68;0.20;;;;;;;18.95;100.00;98810.56;5112187;28;20050;-72
2023/08/03 11:09:53;;;;;;;0.73;0.22;;;;;;;19.06;100.00;98820.94;5123000;28;20026;-71
2023/08/03 11:12:25;;;;;;;1.45;0.38;;;;;;;18.88;100.00;98806.84;5122492;28;20731;-73
2023/08/03 11:14:57;;;;;;;1.13;0.30;;;;;;;18.99;100.00;98811.09;5125382;28;20027;-71
2023/08/03 11:17:29;;;;;;;0.82;0.30;;;;;;;18.78;100.00;98814.00;5120567;28;20066;-72
2023/08/03 11:20:00;;;;;;;7.18;0.45;;;;;;;18.64;100.00;98831.38;5123347;28;20031;-72
2023/08/03 11:22:31;;;;;;;1.48;0.68;;;;;;;18.63;100.00;98833.19;5125658;28;20047;-70
2023/08/03 11:25:04;;;;;;;1.35;0.68;;;;;;;18.72;100.00;98834.94;5127351;28;20470;-72
2023/08/03 11:27:34;;;;;;;3.80;1.42;;;;;;;18.69;100.00;98839.72;5126728;28;20035;-70
2023/08/03 11:30:06;;;;;;;3.88;1.98;;;;;;;18.66;100.00;98835.53;5127392;28;20030;-72
2023/08/03 11:32:36;;;;;;;5.70;2.30;;;;;;;18.72;100.00;98840.25;5124102;28;20031;-70
2023/08/03 11:35:07;;;;;;;7.18;2.35;;;;;;;18.72;100.00;98844.72;5105625;28;20061;-72
2023/08/03 11:37:38;;;;;;;3.85;1.60;;;;;;;18.66;100.00;98850.59;5115458;28;20051;-71
2023/08/03 11:40:08;;;;;;;3.92;1.25;;;;;;;18.60;100.00;98841.44;5122902;28;20030;-71
2023/08/03 11:42:39;;;;;;;2.47;0.82;;;;;;;18.73;100.00;98842.75;5128692;28;20031;-72
2023/08/03 11:45:12;;;;;;;4.07;0.80;;;;;;;18.98;100.00;98838.56;5147261;28;20046;-72
2023/08/03 11:47:44;;;;;;;0.95;0.40;;;;;;;19.12;100.00;98841.53;5127106;28;20223;-71